sensor_id;sensor_type;location;lat;lon;timestamp;P1;durP1;ratioP1;P2;durP2;ratioP2
55316;SDS011;41178;48.956;8.130;2022-11-20T00:02:11;21.63;;;14.63;;
55316;SDS011;41178;48.956;8.130;2022-11-20T00:07:13;20.87;;;14.20;;
55316;SDS011;41178;48.956;8.130;2022-11-20T00:12:15;19.77;;;13.60;;
55316;SDS011;41178;48.956;8.130;2022-11-20T00:17:17;19.33;;;13.70;;
55316;SDS011;41178;48.956;8.130;2022-11-20T00:22:18;18.80;;;13.57;;
55316;SDS011;41178;48.956;8.130;2022-11-20T00:27:20;18.77;;;13.40;;
55316;SDS011;41178;48.956;8.130;2022-11-20T00:32:22;16.47;;;11.73;;
55316;SDS011;41178;48.956;8.130;2022-11-20T00:37:23;14.60;;;10.97;;
55316;SDS011;41178;48.956;8.130;2022-11-20T00:42:25;17.17;;;11.10;;
55316;SDS011;41178;48.956;8.130;2022-11-20T00:47:27;13.47;;;9.67;;
55316;SDS011;41178;48.956;8.130;2022-11-20T00:52:28;11.83;;;9.17;;
55316;SDS011;41178;48.956;8.130;2022-11-20T00:57:30;11.77;;;9.30;;
55316;SDS011;41178;48.956;8.130;2022-11-20T01:02:32;10.80;;;8.03;;
55316;SDS011;41178;48.956;8.130;2022-11-20T01:07:34;11.13;;;7.87;;
55316;SDS011;41178;48.956;8.130;2022-11-20T01:12:35;11.37;;;8.10;;
55316;SDS011;41178;48.956;8.130;2022-11-20T01:17:37;13.77;;;8.80;;
55316;SDS011;41178;48.956;8.130;2022-11-20T01:22:39;11.57;;;8.27;;
55316;SDS011;41178;48.956;8.130;2022-11-20T01:27:40;10.60;;;7.37;;
55316;SDS011;41178;48.956;8.130;2022-11-20T01:32:42;10.63;;;7.20;;
55316;SDS011;41178;48.956;8.130;2022-11-20T01:37:43;9.57;;;7.30;;
55316;SDS011;41178;48.956;8.130;2022-11-20T01:42:47;11.53;;;7.03;;
55316;SDS011;41178;48.956;8.130;2022-11-20T01:48:18;10.40;;;6.17;;
55316;SDS011;41178;48.956;8.130;2022-11-20T01:53:23;9.13;;;6.50;;
55316;SDS011;41178;48.956;8.130;2022-11-20T01:58:30;8.33;;;5.90;;
55316;SDS011;41178;48.956;8.130;2022-11-20T02:03:35;7.73;;;6.27;;
55316;SDS011;41178;48.956;8.130;2022-11-20T02:08:37;9.47;;;6.77;;
55316;SDS011;41178;48.956;8.130;2022-11-20T02:13:39;6.93;;;5.80;;
55316;SDS011;41178;48.956;8.130;2022-11-20T02:18:44;8.13;;;6.43;;
55316;SDS011;41178;48.956;8.130;2022-11-20T02:28:54;8.17;;;5.77;;
55316;SDS011;41178;48.956;8.130;2022-11-20T02:33:57;8.33;;;6.23;;
55316;SDS011;41178;48.956;8.130;2022-11-20T02:38:59;8.00;;;5.73;;
55316;SDS011;41178;48.956;8.130;2022-11-20T02:44:01;6.20;;;5.20;;
55316;SDS011;41178;48.956;8.130;2022-11-20T02:49:03;9.00;;;6.77;;
55316;SDS011;41178;48.956;8.130;2022-11-20T02:54:06;9.43;;;6.50;;
55316;SDS011;41178;48.956;8.130;2022-11-20T02:59:07;8.93;;;6.53;;
55316;SDS011;41178;48.956;8.130;2022-11-20T03:04:09;8.43;;;6.27;;
55316;SDS011;41178;48.956;8.130;2022-11-20T03:09:11;8.37;;;6.17;;
55316;SDS011;41178;48.956;8.130;2022-11-20T03:14:13;7.93;;;6.23;;
55316;SDS011;41178;48.956;8.130;2022-11-20T03:19:15;7.93;;;5.90;;
55316;SDS011;41178;48.956;8.130;2022-11-20T03:24:17;6.40;;;5.20;;
55316;SDS011;41178;48.956;8.130;2022-11-20T03:29:18;8.13;;;6.53;;
55316;SDS011;41178;48.956;8.130;2022-11-20T03:34:20;9.13;;;6.77;;
55316;SDS011;41178;48.956;8.130;2022-11-20T03:39:22;7.10;;;5.27;;
55316;SDS011;41178;48.956;8.130;2022-11-20T03:44:24;8.37;;;5.53;;
55316;SDS011;41178;48.956;8.130;2022-11-20T03:49:26;8.83;;;6.03;;
55316;SDS011;41178;48.956;8.130;2022-11-20T03:54:28;8.03;;;6.47;;
55316;SDS011;41178;48.956;8.130;2022-11-20T03:59:29;7.87;;;5.80;;
55316;SDS011;41178;48.956;8.130;2022-11-20T04:04:31;11.10;;;6.10;;
55316;SDS011;41178;48.956;8.130;2022-11-20T04:09:32;5.90;;;5.30;;
55316;SDS011;41178;48.956;8.130;2022-11-20T04:14:34;6.13;;;5.17;;
55316;SDS011;41178;48.956;8.130;2022-11-20T04:19:36;7.33;;;5.27;;
55316;SDS011;41178;48.956;8.130;2022-11-20T04:24:37;7.27;;;5.70;;
55316;SDS011;41178;48.956;8.130;2022-11-20T04:29:39;9.03;;;6.00;;
55316;SDS011;41178;48.956;8.130;2022-11-20T04:34:40;7.97;;;5.73;;
55316;SDS011;41178;48.956;8.130;2022-11-20T04:39:42;6.60;;;5.07;;
55316;SDS011;41178;48.956;8.130;2022-11-20T04:44:44;6.10;;;4.73;;
55316;SDS011;41178;48.956;8.130;2022-11-20T04:49:45;6.87;;;4.83;;
55316;SDS011;41178;48.956;8.130;2022-11-20T04:54:47;6.63;;;5.00;;
55316;SDS011;41178;48.956;8.130;2022-11-20T04:59:49;5.57;;;5.07;;
55316;SDS011;41178;48.956;8.130;2022-11-20T05:04:50;5.53;;;4.77;;
55316;SDS011;41178;48.956;8.130;2022-11-20T05:09:52;4.77;;;4.00;;
55316;SDS011;41178;48.956;8.130;2022-11-20T05:14:54;6.20;;;5.00;;
55316;SDS011;41178;48.956;8.130;2022-11-20T05:19:55;6.07;;;4.47;;
55316;SDS011;41178;48.956;8.130;2022-11-20T05:24:57;5.40;;;4.67;;
55316;SDS011;41178;48.956;8.130;2022-11-20T05:29:59;6.03;;;4.70;;
55316;SDS011;41178;48.956;8.130;2022-11-20T05:35:00;6.03;;;4.80;;
55316;SDS011;41178;48.956;8.130;2022-11-20T05:40:02;6.07;;;4.53;;
55316;SDS011;41178;48.956;8.130;2022-11-20T05:45:04;5.40;;;4.33;;
55316;SDS011;41178;48.956;8.130;2022-11-20T05:50:07;6.80;;;4.60;;
55316;SDS011;41178;48.956;8.130;2022-11-20T05:55:09;5.40;;;4.40;;
55316;SDS011;41178;48.956;8.130;2022-11-20T06:00:11;6.10;;;4.60;;
55316;SDS011;41178;48.956;8.130;2022-11-20T06:05:13;7.30;;;4.70;;
55316;SDS011;41178;48.956;8.130;2022-11-20T06:10:14;5.60;;;4.90;;
55316;SDS011;41178;48.956;8.130;2022-11-20T06:15:16;6.37;;;4.60;;
55316;SDS011;41178;48.956;8.130;2022-11-20T06:20:18;5.33;;;4.10;;
55316;SDS011;41178;48.956;8.130;2022-11-20T06:25:19;5.13;;;4.37;;
55316;SDS011;41178;48.956;8.130;2022-11-20T06:30:21;6.47;;;4.40;;
55316;SDS011;41178;48.956;8.130;2022-11-20T06:35:22;4.67;;;4.27;;
55316;SDS011;41178;48.956;8.130;2022-11-20T06:40:24;5.20;;;4.50;;
55316;SDS011;41178;48.956;8.130;2022-11-20T06:45:26;4.63;;;4.23;;
55316;SDS011;41178;48.956;8.130;2022-11-20T06:50:27;6.73;;;4.50;;
55316;SDS011;41178;48.956;8.130;2022-11-20T06:55:30;5.47;;;4.60;;
55316;SDS011;41178;48.956;8.130;2022-11-20T07:00:32;5.70;;;4.83;;
55316;SDS011;41178;48.956;8.130;2022-11-20T07:05:34;7.53;;;4.90;;
55316;SDS011;41178;48.956;8.130;2022-11-20T07:10:36;4.87;;;4.23;;
55316;SDS011;41178;48.956;8.130;2022-11-20T07:15:38;5.73;;;5.00;;
55316;SDS011;41178;48.956;8.130;2022-11-20T07:20:40;4.90;;;4.40;;
55316;SDS011;41178;48.956;8.130;2022-11-20T07:25:41;5.07;;;4.03;;
55316;SDS011;41178;48.956;8.130;2022-11-20T07:30:48;4.30;;;3.90;;
55316;SDS011;41178;48.956;8.130;2022-11-20T07:35:51;4.57;;;4.10;;
55316;SDS011;41178;48.956;8.130;2022-11-20T07:40:55;6.20;;;4.13;;
55316;SDS011;41178;48.956;8.130;2022-11-20T07:45:58;5.10;;;4.00;;
55316;SDS011;41178;48.956;8.130;2022-11-20T07:51:00;4.37;;;3.90;;
55316;SDS011;41178;48.956;8.130;2022-11-20T07:56:02;4.57;;;4.17;;
55316;SDS011;41178;48.956;8.130;2022-11-20T08:01:05;6.10;;;4.13;;
55316;SDS011;41178;48.956;8.130;2022-11-20T08:06:08;4.23;;;3.83;;
55316;SDS011;41178;48.956;8.130;2022-11-20T08:11:10;6.37;;;4.10;;
55316;SDS011;41178;48.956;8.130;2022-11-20T08:16:30;5.43;;;4.10;;
55316;SDS011;41178;48.956;8.130;2022-11-20T08:21:32;5.03;;;4.10;;
55316;SDS011;41178;48.956;8.130;2022-11-20T08:26:38;5.23;;;3.77;;
55316;SDS011;41178;48.956;8.130;2022-11-20T08:31:41;5.37;;;4.13;;
55316;SDS011;41178;48.956;8.130;2022-11-20T08:36:42;4.70;;;4.17;;
55316;SDS011;41178;48.956;8.130;2022-11-20T08:41:44;4.37;;;3.97;;
55316;SDS011;41178;48.956;8.130;2022-11-20T08:46:46;4.60;;;4.20;;
55316;SDS011;41178;48.956;8.130;2022-11-20T08:51:48;7.03;;;4.47;;
55316;SDS011;41178;48.956;8.130;2022-11-20T08:56:52;5.20;;;3.93;;
55316;SDS011;41178;48.956;8.130;2022-11-20T09:01:54;6.90;;;5.37;;
55316;SDS011;41178;48.956;8.130;2022-11-20T09:06:56;6.43;;;4.43;;
55316;SDS011;41178;48.956;8.130;2022-11-20T09:11:58;6.13;;;5.03;;
55316;SDS011;41178;48.956;8.130;2022-11-20T09:16:59;5.80;;;5.13;;
55316;SDS011;41178;48.956;8.130;2022-11-20T09:22:01;5.97;;;4.63;;
55316;SDS011;41178;48.956;8.130;2022-11-20T09:27:03;6.93;;;4.83;;
55316;SDS011;41178;48.956;8.130;2022-11-20T09:32:06;7.97;;;5.70;;
55316;SDS011;41178;48.956;8.130;2022-11-20T09:37:07;8.10;;;5.50;;
55316;SDS011;41178;48.956;8.130;2022-11-20T09:47:37;9.50;;;6.40;;
55316;SDS011;41178;48.956;8.130;2022-11-20T09:53:16;11.27;;;6.53;;
55316;SDS011;41178;48.956;8.130;2022-11-20T09:58:50;7.70;;;5.80;;
55316;SDS011;41178;48.956;8.130;2022-11-20T10:04:06;8.30;;;6.97;;
55316;SDS011;41178;48.956;8.130;2022-11-20T10:19:46;10.47;;;6.17;;
55316;SDS011;41178;48.956;8.130;2022-11-20T10:30:21;10.67;;;5.67;;
55316;SDS011;41178;48.956;8.130;2022-11-20T10:35:33;10.67;;;5.90;;
55316;SDS011;41178;48.956;8.130;2022-11-20T11:11:24;5.87;;;4.00;;
55316;SDS011;41178;48.956;8.130;2022-11-20T11:16:29;5.23;;;4.33;;
55316;SDS011;41178;48.956;8.130;2022-11-20T11:21:30;5.47;;;4.13;;
55316;SDS011;41178;48.956;8.130;2022-11-20T11:26:32;6.53;;;3.63;;
55316;SDS011;41178;48.956;8.130;2022-11-20T11:31:34;5.57;;;4.03;;
55316;SDS011;41178;48.956;8.130;2022-11-20T11:36:36;6.30;;;3.93;;
55316;SDS011;41178;48.956;8.130;2022-11-20T11:41:38;4.07;;;3.27;;
55316;SDS011;41178;48.956;8.130;2022-11-20T11:46:44;7.97;;;3.90;;
55316;SDS011;41178;48.956;8.130;2022-11-20T12:02:35;4.33;;;3.53;;
55316;SDS011;41178;48.956;8.130;2022-11-20T12:07:41;5.47;;;3.80;;
55316;SDS011;41178;48.956;8.130;2022-11-20T12:12:49;6.10;;;3.77;;
55316;SDS011;41178;48.956;8.130;2022-11-20T12:17:55;8.17;;;3.23;;
55316;SDS011;41178;48.956;8.130;2022-11-20T12:23:21;9.47;;;3.70;;
55316;SDS011;41178;48.956;8.130;2022-11-20T12:44:03;2.73;;;2.30;;
55316;SDS011;41178;48.956;8.130;2022-11-20T13:00:32;4.67;;;2.40;;
55316;SDS011;41178;48.956;8.130;2022-11-20T13:21:16;5.77;;;2.50;;
55316;SDS011;41178;48.956;8.130;2022-11-20T13:26:20;6.50;;;3.47;;
55316;SDS011;41178;48.956;8.130;2022-11-20T13:36:33;4.30;;;3.33;;
55316;SDS011;41178;48.956;8.130;2022-11-20T13:41:37;5.63;;;3.90;;
55316;SDS011;41178;48.956;8.130;2022-11-20T13:46:41;6.53;;;3.70;;
55316;SDS011;41178;48.956;8.130;2022-11-20T13:51:49;5.10;;;3.90;;
55316;SDS011;41178;48.956;8.130;2022-11-20T14:02:23;4.93;;;2.80;;
55316;SDS011;41178;48.956;8.130;2022-11-20T14:07:48;4.77;;;3.20;;
55316;SDS011;41178;48.956;8.130;2022-11-20T14:12:51;3.70;;;2.93;;
55316;SDS011;41178;48.956;8.130;2022-11-20T14:17:53;5.10;;;3.47;;
55316;SDS011;41178;48.956;8.130;2022-11-20T14:22:55;4.97;;;3.90;;
55316;SDS011;41178;48.956;8.130;2022-11-20T14:27:57;3.73;;;2.60;;
55316;SDS011;41178;48.956;8.130;2022-11-20T14:33:01;7.67;;;5.60;;
55316;SDS011;41178;48.956;8.130;2022-11-20T14:38:08;3.67;;;3.30;;
55316;SDS011;41178;48.956;8.130;2022-11-20T14:43:18;5.97;;;3.10;;
55316;SDS011;41178;48.956;8.130;2022-11-20T14:48:22;3.77;;;2.73;;
55316;SDS011;41178;48.956;8.130;2022-11-20T14:53:29;3.27;;;2.97;;
55316;SDS011;41178;48.956;8.130;2022-11-20T14:58:31;4.07;;;2.90;;
55316;SDS011;41178;48.956;8.130;2022-11-20T15:03:35;5.67;;;2.60;;
55316;SDS011;41178;48.956;8.130;2022-11-20T15:08:39;3.77;;;2.50;;
55316;SDS011;41178;48.956;8.130;2022-11-20T15:13:52;5.37;;;3.87;;
55316;SDS011;41178;48.956;8.130;2022-11-20T15:18:54;3.60;;;2.70;;
55316;SDS011;41178;48.956;8.130;2022-11-20T15:23:56;3.57;;;2.60;;
55316;SDS011;41178;48.956;8.130;2022-11-20T15:28:58;5.07;;;3.00;;
55316;SDS011;41178;48.956;8.130;2022-11-20T15:34:00;2.97;;;2.63;;
55316;SDS011;41178;48.956;8.130;2022-11-20T15:39:01;11.17;;;3.40;;
55316;SDS011;41178;48.956;8.130;2022-11-20T15:44:04;3.53;;;3.23;;
55316;SDS011;41178;48.956;8.130;2022-11-20T15:49:06;6.50;;;2.57;;
55316;SDS011;41178;48.956;8.130;2022-11-20T15:54:14;5.87;;;2.77;;
55316;SDS011;41178;48.956;8.130;2022-11-20T15:59:19;3.27;;;2.47;;
55316;SDS011;41178;48.956;8.130;2022-11-20T16:04:21;3.80;;;2.90;;
55316;SDS011;41178;48.956;8.130;2022-11-20T16:09:23;4.07;;;3.00;;
55316;SDS011;41178;48.956;8.130;2022-11-20T16:14:25;3.20;;;2.40;;
55316;SDS011;41178;48.956;8.130;2022-11-20T16:19:46;4.33;;;3.10;;
55316;SDS011;41178;48.956;8.130;2022-11-20T16:24:48;3.40;;;3.10;;
55316;SDS011;41178;48.956;8.130;2022-11-20T16:29:50;4.57;;;2.60;;
55316;SDS011;41178;48.956;8.130;2022-11-20T16:34:52;4.77;;;2.83;;
55316;SDS011;41178;48.956;8.130;2022-11-20T16:39:54;3.83;;;2.70;;
55316;SDS011;41178;48.956;8.130;2022-11-20T16:44:57;3.80;;;2.90;;
55316;SDS011;41178;48.956;8.130;2022-11-20T16:49:59;3.87;;;2.93;;
55316;SDS011;41178;48.956;8.130;2022-11-20T16:55:02;2.87;;;2.37;;
55316;SDS011;41178;48.956;8.130;2022-11-20T17:00:06;4.30;;;2.70;;
55316;SDS011;41178;48.956;8.130;2022-11-20T17:05:08;6.07;;;2.87;;
55316;SDS011;41178;48.956;8.130;2022-11-20T17:10:10;2.97;;;2.50;;
55316;SDS011;41178;48.956;8.130;2022-11-20T17:15:11;2.30;;;2.10;;
55316;SDS011;41178;48.956;8.130;2022-11-20T17:20:13;4.77;;;3.10;;
55316;SDS011;41178;48.956;8.130;2022-11-20T17:25:15;3.33;;;2.60;;
55316;SDS011;41178;48.956;8.130;2022-11-20T17:30:17;3.20;;;2.90;;
55316;SDS011;41178;48.956;8.130;2022-11-20T17:35:19;4.70;;;2.50;;
55316;SDS011;41178;48.956;8.130;2022-11-20T17:40:21;3.87;;;2.27;;
55316;SDS011;41178;48.956;8.130;2022-11-20T17:45:28;2.93;;;2.70;;
55316;SDS011;41178;48.956;8.130;2022-11-20T17:50:29;4.30;;;3.00;;
55316;SDS011;41178;48.956;8.130;2022-11-20T17:55:31;4.80;;;3.10;;
55316;SDS011;41178;48.956;8.130;2022-11-20T18:01:02;3.63;;;2.70;;
55316;SDS011;41178;48.956;8.130;2022-11-20T18:16:17;3.20;;;2.90;;
55316;SDS011;41178;48.956;8.130;2022-11-20T18:21:18;5.13;;;3.80;;
55316;SDS011;41178;48.956;8.130;2022-11-20T18:26:20;2.93;;;2.73;;
55316;SDS011;41178;48.956;8.130;2022-11-20T18:31:22;4.80;;;3.23;;
55316;SDS011;41178;48.956;8.130;2022-11-20T18:36:25;3.43;;;3.13;;
55316;SDS011;41178;48.956;8.130;2022-11-20T18:41:28;2.97;;;2.77;;
55316;SDS011;41178;48.956;8.130;2022-11-20T18:46:50;2.77;;;2.50;;
55316;SDS011;41178;48.956;8.130;2022-11-20T18:51:52;3.70;;;3.10;;
55316;SDS011;41178;48.956;8.130;2022-11-20T18:56:53;4.90;;;2.60;;
55316;SDS011;41178;48.956;8.130;2022-11-20T19:01:55;4.00;;;3.00;;
55316;SDS011;41178;48.956;8.130;2022-11-20T19:06:57;3.80;;;2.83;;
55316;SDS011;41178;48.956;8.130;2022-11-20T19:12:03;4.70;;;2.90;;
55316;SDS011;41178;48.956;8.130;2022-11-20T19:17:05;3.37;;;2.97;;
55316;SDS011;41178;48.956;8.130;2022-11-20T19:22:07;4.20;;;3.10;;
55316;SDS011;41178;48.956;8.130;2022-11-20T19:27:09;4.27;;;3.57;;
55316;SDS011;41178;48.956;8.130;2022-11-20T19:32:11;4.07;;;3.40;;
55316;SDS011;41178;48.956;8.130;2022-11-20T19:37:13;5.07;;;3.00;;
55316;SDS011;41178;48.956;8.130;2022-11-20T19:42:14;4.47;;;2.80;;
55316;SDS011;41178;48.956;8.130;2022-11-20T19:47:16;4.70;;;3.17;;
55316;SDS011;41178;48.956;8.130;2022-11-20T19:52:17;3.00;;;2.80;;
55316;SDS011;41178;48.956;8.130;2022-11-20T19:57:19;2.80;;;2.60;;
55316;SDS011;41178;48.956;8.130;2022-11-20T20:02:20;2.93;;;2.73;;
55316;SDS011;41178;48.956;8.130;2022-11-20T20:07:22;2.83;;;2.50;;
55316;SDS011;41178;48.956;8.130;2022-11-20T20:12:24;2.23;;;2.13;;
55316;SDS011;41178;48.956;8.130;2022-11-20T20:17:25;2.70;;;2.47;;
55316;SDS011;41178;48.956;8.130;2022-11-20T20:22:27;2.57;;;2.37;;
55316;SDS011;41178;48.956;8.130;2022-11-20T20:27:29;2.70;;;2.60;;
55316;SDS011;41178;48.956;8.130;2022-11-20T20:32:33;2.40;;;2.20;;
55316;SDS011;41178;48.956;8.130;2022-11-20T20:37:34;2.50;;;2.40;;
55316;SDS011;41178;48.956;8.130;2022-11-20T20:42:36;3.30;;;3.00;;
55316;SDS011;41178;48.956;8.130;2022-11-20T20:47:38;2.80;;;2.60;;
55316;SDS011;41178;48.956;8.130;2022-11-20T20:52:42;3.37;;;2.50;;
55316;SDS011;41178;48.956;8.130;2022-11-20T20:57:43;3.30;;;2.50;;
55316;SDS011;41178;48.956;8.130;2022-11-20T21:02:45;2.50;;;2.40;;
55316;SDS011;41178;48.956;8.130;2022-11-20T21:07:47;2.27;;;2.17;;
55316;SDS011;41178;48.956;8.130;2022-11-20T21:13:07;2.30;;;2.20;;
55316;SDS011;41178;48.956;8.130;2022-11-20T21:18:08;2.27;;;2.10;;
55316;SDS011;41178;48.956;8.130;2022-11-20T21:23:10;2.00;;;1.90;;
55316;SDS011;41178;48.956;8.130;2022-11-20T21:28:12;2.27;;;2.17;;
55316;SDS011;41178;48.956;8.130;2022-11-20T21:33:18;2.30;;;2.20;;
55316;SDS011;41178;48.956;8.130;2022-11-20T21:38:20;2.27;;;2.17;;
55316;SDS011;41178;48.956;8.130;2022-11-20T21:43:21;2.23;;;2.03;;
55316;SDS011;41178;48.956;8.130;2022-11-20T21:48:26;2.33;;;2.10;;
55316;SDS011;41178;48.956;8.130;2022-11-20T21:53:29;3.67;;;2.30;;
55316;SDS011;41178;48.956;8.130;2022-11-20T21:58:32;3.90;;;2.63;;
55316;SDS011;41178;48.956;8.130;2022-11-20T22:03:35;3.53;;;2.50;;
55316;SDS011;41178;48.956;8.130;2022-11-20T22:08:37;2.80;;;2.00;;
55316;SDS011;41178;48.956;8.130;2022-11-20T22:13:39;3.60;;;2.57;;
55316;SDS011;41178;48.956;8.130;2022-11-20T22:19:00;3.03;;;2.20;;
55316;SDS011;41178;48.956;8.130;2022-11-20T22:24:02;2.67;;;2.47;;
55316;SDS011;41178;48.956;8.130;2022-11-20T22:29:03;5.27;;;2.77;;
55316;SDS011;41178;48.956;8.130;2022-11-20T22:34:05;2.80;;;2.40;;
55316;SDS011;41178;48.956;8.130;2022-11-20T22:39:07;2.53;;;2.33;;
55316;SDS011;41178;48.956;8.130;2022-11-20T22:44:11;3.80;;;2.73;;
55316;SDS011;41178;48.956;8.130;2022-11-20T22:49:14;2.90;;;2.70;;
55316;SDS011;41178;48.956;8.130;2022-11-20T22:54:16;2.17;;;2.07;;
55316;SDS011;41178;48.956;8.130;2022-11-20T22:59:17;3.93;;;2.90;;
55316;SDS011;41178;48.956;8.130;2022-11-20T23:04:19;3.00;;;2.80;;
55316;SDS011;41178;48.956;8.130;2022-11-20T23:09:21;3.00;;;2.60;;
55316;SDS011;41178;48.956;8.130;2022-11-20T23:14:22;2.80;;;2.60;;
55316;SDS011;41178;48.956;8.130;2022-11-20T23:19:28;3.93;;;2.80;;
55316;SDS011;41178;48.956;8.130;2022-11-20T23:24:29;5.93;;;3.20;;
55316;SDS011;41178;48.956;8.130;2022-11-20T23:29:31;2.80;;;2.57;;
55316;SDS011;41178;48.956;8.130;2022-11-20T23:34:33;2.20;;;2.10;;
55316;SDS011;41178;48.956;8.130;2022-11-20T23:39:34;6.03;;;2.90;;
55316;SDS011;41178;48.956;8.130;2022-11-20T23:44:36;2.67;;;2.47;;
55316;SDS011;41178;48.956;8.130;2022-11-20T23:49:37;3.07;;;2.70;;
55316;SDS011;41178;48.956;8.130;2022-11-20T23:54:39;3.43;;;2.27;;
55316;SDS011;41178;48.956;8.130;2022-11-20T23:59:41;2.57;;;2.37;;
